createdAt,value
2022-09-06T00:01:15.251Z,19.29
2022-09-06T00:04:17.282Z,19.26
2022-09-06T00:07:18.985Z,19.25
2022-09-06T00:10:21.182Z,19.23
2022-09-06T00:13:22.835Z,19.18
2022-09-06T00:16:28.545Z,19.17
2022-09-06T00:19:32.070Z,19.10
2022-09-06T00:22:33.778Z,19.05
2022-09-06T00:25:35.909Z,18.99
2022-09-06T00:28:38.716Z,18.97
2022-09-06T00:31:40.392Z,18.94
2022-09-06T00:34:42.233Z,18.91
2022-09-06T00:37:44.200Z,18.88
2022-09-06T00:40:45.863Z,18.88
2022-09-06T00:43:47.663Z,18.87
2022-09-06T00:46:51.540Z,18.88
2022-09-06T00:49:56.705Z,18.85
2022-09-06T00:52:58.628Z,18.81
2022-09-06T00:56:00.733Z,18.80
2022-09-06T00:59:02.461Z,18.79
2022-09-06T01:02:05.670Z,18.78
2022-09-06T01:05:07.954Z,18.74
2022-09-06T01:08:40.288Z,18.73
2022-09-06T01:12:08.549Z,18.71
2022-09-06T01:15:35.205Z,18.70
2022-09-06T01:18:52.844Z,18.71
2022-09-06T01:22:25.605Z,18.69
2022-09-06T01:25:49.055Z,18.69
2022-09-06T01:28:52.857Z,18.65
2022-09-06T01:32:09.165Z,18.66
2022-09-06T01:35:34.019Z,18.61
2022-09-06T01:38:35.991Z,18.57
2022-09-06T01:41:37.641Z,18.58
2022-09-06T01:44:47.952Z,18.56
2022-09-06T01:48:17.009Z,18.49
2022-09-06T01:51:30.128Z,18.46
2022-09-06T01:54:57.871Z,18.43
2022-09-06T01:58:23.821Z,18.37
2022-09-06T02:01:41.215Z,18.35
2022-09-06T02:04:47.572Z,18.27
2022-09-06T02:07:52.703Z,18.24
2022-09-06T02:11:01.620Z,18.19
2022-09-06T02:14:10.317Z,18.18
2022-09-06T02:17:17.598Z,18.15
2022-09-06T02:20:24.906Z,18.14
2022-09-06T02:23:31.564Z,18.11
2022-09-06T02:26:38.761Z,18.06
2022-09-06T02:29:41.270Z,18.04
2022-09-06T02:32:49.946Z,17.98
2022-09-06T02:35:54.992Z,17.95
2022-09-06T02:38:57.192Z,17.88
2022-09-06T02:41:59.440Z,17.81
2022-09-06T02:45:01.089Z,17.77
2022-09-06T02:48:02.979Z,17.75
2022-09-06T02:51:06.267Z,17.73
2022-09-06T02:54:07.982Z,17.72
2022-09-06T02:57:09.588Z,17.71
2022-09-06T03:00:12.104Z,17.68
2022-09-06T03:03:14.468Z,17.63
2022-09-06T03:06:16.092Z,17.56
2022-09-06T03:09:17.787Z,17.53
2022-09-06T03:12:19.404Z,17.52
2022-09-06T03:15:22.423Z,17.47
2022-09-06T03:18:25.449Z,17.45
2022-09-06T03:21:27.197Z,17.37
2022-09-06T03:24:28.813Z,17.31
2022-09-06T03:27:30.427Z,17.24
2022-09-06T03:30:32.129Z,17.20
2022-09-06T03:33:33.903Z,17.19
2022-09-06T03:36:35.708Z,17.16
2022-09-06T03:39:37.366Z,17.12
2022-09-06T03:42:39.040Z,17.10
2022-09-06T03:45:44.467Z,17.07
2022-09-06T03:48:46.097Z,17.07
2022-09-06T03:51:48.109Z,17.04
2022-09-06T03:54:50.482Z,17.01
2022-09-06T03:57:52.339Z,17.01
2022-09-06T04:01:09.545Z,16.98
2022-09-06T04:04:11.354Z,16.95
2022-09-06T04:07:13.318Z,16.92
2022-09-06T04:10:15.375Z,16.87
2022-09-06T04:13:18.271Z,16.82
2022-09-06T04:16:20.170Z,16.78
2022-09-06T04:19:22.110Z,16.77
2022-09-06T04:22:23.969Z,16.75
2022-09-06T04:25:25.685Z,16.70
2022-09-06T04:28:28.007Z,16.65
2022-09-06T04:31:32.117Z,16.62
2022-09-06T04:34:34.241Z,16.58
2022-09-06T04:37:36.056Z,16.54
2022-09-06T04:40:37.638Z,16.54
2022-09-06T04:43:40.388Z,16.53
2022-09-06T04:46:42.641Z,16.50
2022-09-06T04:49:44.273Z,16.49
2022-09-06T04:52:46.348Z,16.53
2022-09-06T04:55:48.059Z,16.53
2022-09-06T04:58:50.961Z,16.55
2022-09-06T05:01:52.571Z,16.53
2022-09-06T05:04:54.808Z,16.50
2022-09-06T05:07:57.093Z,16.49
2022-09-06T05:10:58.695Z,16.50
2022-09-06T05:14:00.551Z,16.49
2022-09-06T05:17:02.210Z,16.52
2022-09-06T05:20:04.820Z,16.55
2022-09-06T05:23:06.783Z,16.50
2022-09-06T05:26:08.709Z,16.50
2022-09-06T05:29:10.386Z,16.53
2022-09-06T05:32:12.397Z,16.47
2022-09-06T05:35:14.056Z,16.45
2022-09-06T05:38:15.820Z,16.46
2022-09-06T05:41:17.819Z,16.46
2022-09-06T05:44:19.429Z,16.46
2022-09-06T05:47:21.060Z,16.50
2022-09-06T05:50:22.834Z,16.51
2022-09-06T05:53:24.436Z,16.50
2022-09-06T05:56:26.220Z,16.39
2022-09-06T05:59:27.929Z,16.36
2022-09-06T06:02:29.587Z,16.33
2022-09-06T06:05:31.273Z,16.26
2022-09-06T06:08:32.950Z,16.26
2022-09-06T06:11:34.598Z,16.34
2022-09-06T06:14:36.290Z,16.35
2022-09-06T06:17:37.920Z,16.30
2022-09-06T06:20:42.409Z,16.28
2022-09-06T06:23:47.640Z,16.28
2022-09-06T06:26:49.296Z,16.22
2022-09-06T06:29:52.419Z,16.23
2022-09-06T06:32:58.422Z,16.23
2022-09-06T06:36:02.280Z,16.26
2022-09-06T06:39:06.392Z,16.27
2022-09-06T06:42:09.175Z,16.26
2022-09-06T06:45:24.023Z,16.27
2022-09-06T06:48:25.805Z,16.26
2022-09-06T06:51:30.548Z,16.27
2022-09-06T06:54:32.231Z,16.26
2022-09-06T06:57:34.049Z,16.27
2022-09-06T07:00:35.761Z,16.32
2022-09-06T07:03:37.777Z,16.38
2022-09-06T07:13:37.230Z,16.20
2022-09-06T07:16:38.948Z,15.75
2022-09-06T07:26:30.347Z,15.34
2022-09-06T07:29:31.915Z,15.40
2022-09-06T07:32:36.744Z,15.49
2022-09-06T07:35:38.319Z,15.53
2022-09-06T07:38:40.539Z,15.65
2022-09-06T07:41:42.988Z,15.78
2022-09-06T07:44:44.668Z,15.94
2022-09-06T07:47:57.377Z,16.12
2022-09-06T07:51:07.768Z,16.26
2022-09-06T07:57:31.098Z,16.31
2022-09-06T08:00:32.914Z,16.33
2022-09-06T08:03:35.886Z,16.35
2022-09-06T08:10:01.844Z,16.50
2022-09-06T08:13:03.527Z,16.61
2022-09-06T08:16:08.045Z,16.84
2022-09-06T08:19:10.893Z,17.08
2022-09-06T08:22:12.687Z,17.22
2022-09-06T08:25:14.377Z,17.28
2022-09-06T08:28:16.018Z,17.30
2022-09-06T08:31:17.954Z,17.41
2022-09-06T08:34:19.734Z,17.45
2022-09-06T08:37:24.985Z,17.65
2022-09-06T08:40:26.852Z,17.96
2022-09-06T08:43:28.739Z,18.40
2022-09-06T08:46:47.168Z,18.71
2022-09-06T08:49:56.780Z,18.82
2022-09-06T08:53:18.105Z,18.86
2022-09-06T08:56:37.552Z,18.85
2022-09-06T08:59:41.194Z,18.75
2022-09-06T09:02:46.531Z,18.67
2022-09-06T09:05:52.589Z,18.73
2022-09-06T09:09:06.081Z,18.79
2022-09-06T09:12:15.722Z,18.86
2022-09-06T09:15:19.918Z,18.88
2022-09-06T09:18:50.613Z,19.03
2022-09-06T09:21:52.376Z,19.13
2022-09-06T09:24:58.939Z,19.15
2022-09-06T09:28:00.965Z,19.20
2022-09-06T09:31:04.663Z,19.41
2022-09-06T09:34:34.299Z,19.70
2022-09-06T09:42:01.710Z,19.81
2022-09-06T09:45:36.852Z,19.68
2022-09-06T09:48:47.100Z,19.69
2022-09-06T09:52:12.594Z,19.68
2022-09-06T09:55:14.389Z,19.57
2022-09-06T09:58:41.068Z,19.46
2022-09-06T10:01:42.748Z,19.45
2022-09-06T10:04:47.146Z,19.48
2022-09-06T10:08:00.519Z,19.47
2022-09-06T10:11:02.225Z,19.44
2022-09-06T10:14:21.986Z,19.48
2022-09-06T10:17:26.729Z,19.47
2022-09-06T10:20:39.910Z,19.44
2022-09-06T10:27:10.191Z,19.73
2022-09-06T10:30:14.133Z,19.88
2022-09-06T10:33:33.065Z,19.94
2022-09-06T10:36:37.714Z,19.96
2022-09-06T10:40:01.890Z,20.01
2022-09-06T10:43:08.514Z,20.05
2022-09-06T10:46:16.407Z,20.11
2022-09-06T10:49:19.815Z,20.31
2022-09-06T10:52:44.954Z,20.65
2022-09-06T10:55:50.799Z,20.82
2022-09-06T11:02:26.931Z,21.00
2022-09-06T11:09:02.829Z,21.21
2022-09-06T11:12:13.262Z,21.30
2022-09-06T11:16:24.920Z,21.39
2022-09-06T11:19:38.636Z,21.41
2022-09-06T11:22:56.879Z,21.48
2022-09-06T11:26:23.722Z,21.50
2022-09-06T11:29:35.659Z,21.50
2022-09-06T11:33:05.881Z,21.58
2022-09-06T11:36:32.168Z,21.67
2022-09-06T11:43:07.915Z,21.85
2022-09-06T11:46:09.692Z,21.96
2022-09-06T11:49:31.850Z,22.04
2022-09-06T11:53:16.988Z,22.14
2022-09-06T11:56:50.031Z,22.23
2022-09-06T12:00:01.755Z,22.28
2022-09-06T12:07:16.623Z,22.35
2022-09-06T12:10:41.992Z,22.49
2022-09-06T12:13:47.029Z,22.45
2022-09-06T12:17:09.117Z,22.53
2022-09-06T12:20:52.983Z,22.65
2022-09-06T12:24:04.083Z,22.65
2022-09-06T12:27:35.114Z,22.65
2022-09-06T12:30:52.679Z,22.65
2022-09-06T12:33:55.242Z,22.72
2022-09-06T12:37:09.193Z,22.79
2022-09-06T12:40:21.246Z,22.85
2022-09-06T12:43:26.384Z,22.90
2022-09-06T12:46:30.180Z,22.97
2022-09-06T12:49:32.073Z,23.07
2022-09-06T12:52:33.684Z,23.07
2022-09-06T12:55:38.494Z,23.15
2022-09-06T12:58:40.739Z,23.25
2022-09-06T13:02:22.197Z,23.30
2022-09-06T13:05:24.897Z,23.37
2022-09-06T13:08:55.450Z,23.46
2022-09-06T13:12:06.514Z,23.52
2022-09-06T13:15:14.239Z,23.56
2022-09-06T13:18:37.297Z,23.68
2022-09-06T13:21:54.974Z,23.76
2022-09-06T13:25:25.619Z,23.82
2022-09-06T13:28:32.527Z,23.89
2022-09-06T13:31:39.290Z,23.88
2022-09-06T13:34:52.332Z,23.92
2022-09-06T13:38:43.075Z,23.91
2022-09-06T13:41:44.982Z,23.93
2022-09-06T13:44:49.604Z,24.02
2022-09-06T13:48:03.454Z,24.06
2022-09-06T13:51:30.921Z,24.07
2022-09-06T13:54:42.450Z,24.08
2022-09-06T13:57:44.352Z,24.07
2022-09-06T14:00:46.912Z,24.07
2022-09-06T14:03:49.692Z,24.09
2022-09-06T14:06:51.443Z,24.13
2022-09-06T14:09:53.372Z,24.20
2022-09-06T14:12:55.134Z,24.24
2022-09-06T14:16:10.615Z,24.33
2022-09-06T14:19:12.300Z,24.41
2022-09-06T14:22:19.822Z,24.41
2022-09-06T14:25:24.295Z,24.42
2022-09-06T14:28:26.863Z,24.52
2022-09-06T14:31:29.104Z,24.59
2022-09-06T14:34:35.003Z,24.61
2022-09-06T14:37:37.818Z,24.68
2022-09-06T14:40:41.115Z,24.73
2022-09-06T14:43:45.961Z,24.77
2022-09-06T14:46:57.565Z,24.81
2022-09-06T14:50:00.459Z,24.80
2022-09-06T14:53:02.720Z,24.84
2022-09-06T14:56:04.987Z,24.94
2022-09-06T14:59:07.540Z,24.97
2022-09-06T15:02:09.507Z,24.99
2022-09-06T15:05:11.283Z,25.04
2022-09-06T15:08:15.291Z,25.07
2022-09-06T15:11:52.235Z,25.15
2022-09-06T15:14:53.962Z,25.12
2022-09-06T15:17:55.725Z,25.12
2022-09-06T15:21:14.568Z,25.13
2022-09-06T15:24:18.714Z,25.11
2022-09-06T15:27:20.429Z,25.13
2022-09-06T15:30:22.315Z,25.13
2022-09-06T15:33:23.985Z,25.16
2022-09-06T15:36:25.739Z,25.25
2022-09-06T15:39:30.406Z,25.20
2022-09-06T15:42:32.494Z,25.16
2022-09-06T15:45:47.663Z,25.13
2022-09-06T15:48:52.343Z,25.15
2022-09-06T15:52:06.017Z,25.14
2022-09-06T15:55:41.624Z,25.04
2022-09-06T15:58:46.377Z,24.97
2022-09-06T16:01:48.320Z,24.98
2022-09-06T16:04:50.092Z,24.96
2022-09-06T16:07:51.878Z,24.90
2022-09-06T16:10:53.873Z,24.94
2022-09-06T16:13:56.234Z,24.88
2022-09-06T16:16:58.141Z,24.88
2022-09-06T16:20:01.168Z,24.84
2022-09-06T16:23:02.871Z,24.79
2022-09-06T16:26:09.057Z,24.72
2022-09-06T16:29:17.294Z,24.72
2022-09-06T16:32:19.233Z,24.62
2022-09-06T16:35:20.866Z,24.56
2022-09-06T16:38:22.673Z,24.53
2022-09-06T16:41:31.304Z,24.51
2022-09-06T16:44:32.992Z,24.48
2022-09-06T16:47:34.626Z,24.43
2022-09-06T16:50:36.345Z,24.39
2022-09-06T16:53:43.296Z,24.38
2022-09-06T16:56:45.621Z,24.35
2022-09-06T16:59:48.622Z,24.27
2022-09-06T17:02:50.480Z,24.28
2022-09-06T17:05:55.498Z,24.18
2022-09-06T17:09:01.111Z,24.16
2022-09-06T17:12:12.746Z,24.12
2022-09-06T17:15:14.478Z,24.01
2022-09-06T17:18:16.444Z,23.93
2022-09-06T17:21:19.264Z,23.86
2022-09-06T17:24:22.257Z,23.76
2022-09-06T17:27:26.052Z,23.68
2022-09-06T17:30:27.995Z,23.59
2022-09-06T17:33:31.224Z,23.46
2022-09-06T17:36:36.098Z,23.37
2022-09-06T17:39:38.611Z,23.27
2022-09-06T17:42:40.359Z,23.17
2022-09-06T17:45:42.934Z,23.10
2022-09-06T17:48:44.800Z,23.04
2022-09-06T17:51:49.323Z,22.96
2022-09-06T17:54:51.168Z,22.88
2022-09-06T17:57:53.039Z,22.75
2022-09-06T18:00:57.634Z,22.66
2022-09-06T18:04:00.044Z,22.58
2022-09-06T18:07:02.304Z,22.53
2022-09-06T18:10:04.345Z,22.45
2022-09-06T18:13:06.606Z,22.38
2022-09-06T18:16:09.383Z,22.27
2022-09-06T18:19:15.175Z,22.15
2022-09-06T18:22:19.287Z,22.10
2022-09-06T18:25:21.233Z,22.02
2022-09-06T18:28:32.073Z,21.92
2022-09-06T18:31:34.236Z,21.79
2022-09-06T18:34:46.587Z,21.69
2022-09-06T18:42:29.351Z,21.54
2022-09-06T18:45:43.094Z,21.44
2022-09-06T18:49:03.363Z,21.38
2022-09-06T18:56:26.188Z,21.09
2022-09-06T19:00:50.124Z,20.97
2022-09-06T19:03:10.026Z,20.86
2022-09-06T19:07:14.079Z,20.80
2022-09-06T19:10:10.930Z,20.70
2022-09-06T19:21:00.787Z,20.35
2022-09-06T19:24:05.200Z,20.25
2022-09-06T19:27:10.679Z,20.21
2022-09-06T19:32:31.038Z,20.11
2022-09-06T19:34:38.103Z,19.96
2022-09-06T19:37:39.971Z,19.84
2022-09-06T19:40:54.110Z,19.74
2022-09-06T19:43:57.477Z,19.68
2022-09-06T19:47:00.326Z,19.61
2022-09-06T19:50:03.665Z,19.52
2022-09-06T19:53:07.426Z,19.46
2022-09-06T19:56:09.673Z,19.39
2022-09-06T19:59:12.925Z,19.33
2022-09-06T20:02:14.686Z,19.25
2022-09-06T20:05:18.014Z,19.20
2022-09-06T20:08:19.680Z,19.08
2022-09-06T20:11:25.556Z,19.00
2022-09-06T20:14:27.281Z,18.94
2022-09-06T20:17:33.792Z,18.83
2022-09-06T20:20:35.934Z,18.74
2022-09-06T20:23:37.845Z,18.69
2022-09-06T20:26:40.670Z,18.65
2022-09-06T20:29:42.477Z,18.58
2022-09-06T20:32:44.156Z,18.51
2022-09-06T20:35:54.744Z,18.46
2022-09-06T20:38:56.789Z,18.39
2022-09-06T20:41:58.577Z,18.34
2022-09-06T20:45:00.382Z,18.30
2022-09-06T20:48:02.310Z,18.26
2022-09-06T20:51:07.133Z,18.19
2022-09-06T20:54:10.513Z,18.18
2022-09-06T20:57:12.238Z,18.14
2022-09-06T21:00:14.648Z,18.09
2022-09-06T21:03:16.402Z,18.03
2022-09-06T21:06:18.904Z,18.01
2022-09-06T21:09:20.633Z,17.95
2022-09-06T21:12:22.369Z,17.92
2022-09-06T21:15:24.021Z,17.92
2022-09-06T21:18:27.529Z,17.91
2022-09-06T21:21:30.512Z,17.88
2022-09-06T21:24:33.906Z,17.90
2022-09-06T21:27:37.837Z,17.92
2022-09-06T21:30:39.608Z,17.88
2022-09-06T21:33:43.636Z,17.86
2022-09-06T21:36:45.371Z,17.83
2022-09-06T21:39:47.499Z,17.78
2022-09-06T21:42:49.235Z,17.74
2022-09-06T21:45:50.947Z,17.73
2022-09-06T21:48:54.303Z,17.71
2022-09-06T21:51:55.995Z,17.69
2022-09-06T21:54:57.926Z,17.68
2022-09-06T21:57:59.677Z,17.63
2022-09-06T22:01:02.194Z,17.61
2022-09-06T22:04:06.014Z,17.58
2022-09-06T22:07:07.828Z,17.59
2022-09-06T22:10:09.664Z,17.58
2022-09-06T22:13:11.411Z,17.56
2022-09-06T22:16:15.183Z,17.55
2022-09-06T22:19:16.905Z,17.53
2022-09-06T22:22:18.965Z,17.54
2022-09-06T22:25:20.704Z,17.55
2022-09-06T22:28:22.449Z,17.55
2022-09-06T22:31:26.832Z,17.53
2022-09-06T22:34:28.859Z,17.51
2022-09-06T22:37:30.637Z,17.52
2022-09-06T22:40:32.336Z,17.52
2022-09-06T22:43:34.066Z,17.51
2022-09-06T22:46:36.094Z,17.51
2022-09-06T22:49:37.832Z,17.50
2022-09-06T22:52:39.536Z,17.47
2022-09-06T22:55:46.831Z,17.49
2022-09-06T22:58:48.651Z,17.45
2022-09-06T23:01:50.498Z,17.44
2022-09-06T23:04:52.252Z,17.40
2022-09-06T23:07:54.056Z,17.37
2022-09-06T23:10:55.732Z,17.35
2022-09-06T23:13:58.909Z,17.35
2022-09-06T23:17:00.680Z,17.33
2022-09-06T23:20:03.886Z,17.27
2022-09-06T23:23:07.309Z,17.26
2022-09-06T23:26:16.343Z,17.22
2022-09-06T23:29:18.011Z,17.17
2022-09-06T23:32:20.010Z,17.14
2022-09-06T23:35:22.275Z,17.09
2022-09-06T23:38:23.955Z,17.09
2022-09-06T23:41:25.918Z,17.07
2022-09-06T23:44:28.189Z,17.06
2022-09-06T23:47:30.184Z,17.05
2022-09-06T23:50:32.161Z,17.02
2022-09-06T23:53:34.055Z,17.01
2022-09-06T23:56:35.858Z,16.99
2022-09-06T23:59:37.593Z,16.92
